createdAt,value
2022-10-23T00:02:17.870Z,100500.80
2022-10-23T00:04:49.897Z,100500.80
2022-10-23T00:07:20.107Z,100504.00
2022-10-23T00:09:50.015Z,100507.80
2022-10-23T00:12:19.706Z,100514.40
2022-10-23T00:14:49.433Z,100509.20
2022-10-23T00:17:19.070Z,100507.20
2022-10-23T00:19:48.541Z,100502.40
2022-10-23T00:22:18.163Z,100497.20
2022-10-23T00:24:47.787Z,100498.80
2022-10-23T00:27:17.266Z,100491.80
2022-10-23T00:29:46.933Z,100488.00
2022-10-23T00:32:16.500Z,100495.20
2022-10-23T00:34:46.267Z,100495.40
2022-10-23T00:37:16.086Z,100500.60
2022-10-23T00:39:45.879Z,100499.20
2022-10-23T00:42:18.966Z,100500.60
2022-10-23T00:45:15.987Z,100497.60
2022-10-23T00:47:46.871Z,100501.00
2022-10-23T00:50:17.220Z,100495.00
2022-10-23T00:52:51.305Z,100497.20
2022-10-23T00:55:24.928Z,100496.40
2022-10-23T00:57:55.128Z,100492.20
2022-10-23T01:00:28.282Z,100493.20
2022-10-23T01:02:59.487Z,100493.60
2022-10-23T01:05:42.149Z,100502.00
2022-10-23T01:08:22.119Z,100497.80
2022-10-23T01:11:03.773Z,100499.00
2022-10-23T01:13:44.368Z,100498.40
2022-10-23T01:16:23.778Z,100508.80
2022-10-23T01:19:04.593Z,100503.20
2022-10-23T01:21:53.872Z,100513.60
2022-10-23T01:24:45.822Z,100512.80
2022-10-23T01:27:23.812Z,100518.20
2022-10-23T01:30:06.416Z,100513.80
2022-10-23T01:32:52.496Z,100515.40
2022-10-23T01:35:27.382Z,100511.80
2022-10-23T01:38:09.450Z,100519.00
2022-10-23T01:40:50.694Z,100515.40
2022-10-23T01:43:25.808Z,100518.40
2022-10-23T01:46:02.163Z,100521.00
2022-10-23T01:48:34.779Z,100517.00
2022-10-23T01:51:08.935Z,100517.00
2022-10-23T01:53:44.354Z,100519.60
2022-10-23T01:56:20.113Z,100517.60
2022-10-23T01:58:55.078Z,100523.00
2022-10-23T02:01:30.876Z,100524.60
2022-10-23T02:04:06.563Z,100529.40
2022-10-23T02:06:36.149Z,100531.60
2022-10-23T02:09:06.781Z,100532.60
2022-10-23T02:11:45.135Z,100531.40
2022-10-23T02:14:26.425Z,100533.00
2022-10-23T02:17:01.703Z,100532.80
2022-10-23T02:19:42.300Z,100535.40
2022-10-23T02:22:21.875Z,100535.20
2022-10-23T02:24:56.926Z,100536.40
2022-10-23T02:27:32.881Z,100539.00
2022-10-23T02:30:07.843Z,100539.20
2022-10-23T02:32:45.868Z,100545.20
2022-10-23T02:35:16.677Z,100540.80
2022-10-23T02:37:55.377Z,100534.80
2022-10-23T02:40:35.558Z,100543.20
2022-10-23T02:43:18.960Z,100540.40
2022-10-23T02:45:59.824Z,100541.60
2022-10-23T02:48:41.585Z,100545.00
2022-10-23T02:51:20.945Z,100539.80
2022-10-23T02:54:03.002Z,100549.60
2022-10-23T02:56:44.214Z,100556.20
2022-10-23T02:59:24.033Z,100551.00
2022-10-23T03:02:02.417Z,100554.40
2022-10-23T03:04:35.138Z,100553.40
2022-10-23T03:07:05.610Z,100554.40
2022-10-23T03:09:36.728Z,100560.60
2022-10-23T03:12:06.869Z,100563.80
2022-10-23T03:14:36.838Z,100558.80
2022-10-23T03:17:06.583Z,100554.80
2022-10-23T03:19:36.111Z,100554.20
2022-10-23T03:22:06.464Z,100549.40
2022-10-23T03:24:36.019Z,100553.00
2022-10-23T03:27:05.650Z,100552.60
2022-10-23T03:29:35.306Z,100549.80
2022-10-23T03:32:05.338Z,100554.60
2022-10-23T03:34:35.254Z,100555.20
2022-10-23T03:37:06.305Z,100552.00
2022-10-23T03:39:35.881Z,100550.40
2022-10-23T03:42:05.948Z,100550.20
2022-10-23T03:44:35.512Z,100550.00
2022-10-23T03:47:05.462Z,100551.00
2022-10-23T03:49:34.970Z,100554.20
2022-10-23T03:52:08.947Z,100555.00
2022-10-23T03:54:38.792Z,100557.00
2022-10-23T03:57:08.262Z,100554.40
2022-10-23T03:59:38.546Z,100557.00
2022-10-23T04:02:08.749Z,100547.20
2022-10-23T04:04:38.480Z,100550.80
2022-10-23T04:07:08.300Z,100549.80
2022-10-23T04:09:38.257Z,100549.60
2022-10-23T04:12:09.288Z,100539.40
2022-10-23T04:14:39.166Z,100541.60
2022-10-23T04:17:08.980Z,100543.60
2022-10-23T04:19:38.717Z,100539.40
2022-10-23T04:22:08.437Z,100536.40
2022-10-23T04:24:38.447Z,100530.20
2022-10-23T04:27:08.719Z,100524.40
2022-10-23T04:29:38.903Z,100529.40
2022-10-23T04:32:09.509Z,100537.20
2022-10-23T04:34:39.246Z,100533.60
2022-10-23T04:37:09.031Z,100532.60
2022-10-23T04:39:40.291Z,100529.60
2022-10-23T04:42:09.908Z,100534.40
2022-10-23T04:44:39.581Z,100536.00
2022-10-23T04:47:09.374Z,100535.80
2022-10-23T04:49:48.588Z,100540.60
2022-10-23T04:52:38.228Z,100548.60
2022-10-23T04:55:29.441Z,100550.80
2022-10-23T04:58:22.391Z,100545.00
2022-10-23T05:00:54.480Z,100547.20
2022-10-23T05:03:29.418Z,100547.80
2022-10-23T05:06:01.425Z,100554.80
2022-10-23T05:08:49.465Z,100557.60
2022-10-23T05:11:35.399Z,100562.40
2022-10-23T05:14:10.456Z,100563.00
2022-10-23T05:16:51.407Z,100575.00
2022-10-23T05:19:30.388Z,100571.80
2022-10-23T05:22:02.394Z,100577.80
2022-10-23T05:24:50.755Z,100579.20
2022-10-23T05:27:27.407Z,100577.60
2022-10-23T05:30:00.418Z,100576.80
2022-10-23T05:32:35.397Z,100587.60
2022-10-23T05:35:12.387Z,100588.00
2022-10-23T05:37:49.387Z,100583.20
2022-10-23T05:40:27.488Z,100585.80
2022-10-23T05:43:05.400Z,100581.20
2022-10-23T05:45:50.476Z,100577.20
2022-10-23T05:48:41.376Z,100582.40
2022-10-23T05:51:20.393Z,100579.00
2022-10-23T06:01:53.614Z,100572.60
2022-10-23T06:04:46.197Z,100574.80
2022-10-23T06:07:38.562Z,100576.80
2022-10-23T06:10:15.485Z,100572.60
2022-10-23T06:12:52.741Z,100575.00
2022-10-23T06:15:27.293Z,100575.00
2022-10-23T06:18:08.368Z,100568.60
2022-10-23T06:20:44.777Z,100573.80
2022-10-23T06:23:24.007Z,100571.20
2022-10-23T06:26:20.373Z,100569.40
2022-10-23T06:29:14.434Z,100582.00
2022-10-23T06:31:49.166Z,100582.40
2022-10-23T06:34:23.081Z,100592.20
2022-10-23T06:36:57.444Z,100594.00
2022-10-23T06:39:57.571Z,100593.00
2022-10-23T06:43:01.695Z,100595.60
2022-10-23T06:45:41.580Z,100592.20
2022-10-23T06:48:21.549Z,100600.00
2022-10-23T06:51:14.151Z,100600.40
2022-10-23T06:53:50.012Z,100599.00
2022-10-23T06:56:42.487Z,100604.20
2022-10-23T06:59:16.592Z,100614.80
2022-10-23T07:01:50.583Z,100613.00
2022-10-23T07:04:26.549Z,100607.40
2022-10-23T07:07:00.962Z,100608.40
2022-10-23T07:09:41.490Z,100608.00
2022-10-23T07:12:29.229Z,100609.40
2022-10-23T07:15:24.085Z,100605.00
2022-10-23T07:17:58.679Z,100607.00
2022-10-23T07:20:36.546Z,100604.60
2022-10-23T07:23:12.427Z,100601.40
2022-10-23T07:25:46.537Z,100589.80
2022-10-23T07:28:21.600Z,100592.40
2022-10-23T07:31:02.378Z,100586.80
2022-10-23T07:33:56.710Z,100585.60
2022-10-23T07:36:31.205Z,100578.60
2022-10-23T07:39:05.055Z,100582.20
2022-10-23T07:41:40.586Z,100579.40
2022-10-23T07:44:15.482Z,100579.20
2022-10-23T07:46:49.435Z,100574.20
2022-10-23T07:49:23.690Z,100575.40
2022-10-23T07:51:59.081Z,100568.80
2022-10-23T07:54:37.752Z,100573.00
2022-10-23T07:57:26.877Z,100574.40
2022-10-23T08:00:15.556Z,100567.60
2022-10-23T08:02:54.092Z,100563.80
2022-10-23T08:05:28.172Z,100562.80
2022-10-23T08:08:06.378Z,100566.60
2022-10-23T08:10:41.649Z,100567.80
2022-10-23T08:13:20.410Z,100569.80
2022-10-23T08:15:59.615Z,100568.40
2022-10-23T08:19:03.604Z,100572.60
2022-10-23T08:21:37.388Z,100566.40
2022-10-23T08:24:14.037Z,100576.20
2022-10-23T08:26:51.561Z,100575.00
2022-10-23T08:29:27.073Z,100576.80
2022-10-23T08:32:00.833Z,100574.20
2022-10-23T08:34:44.962Z,100579.60
2022-10-23T08:37:18.989Z,100574.80
2022-10-23T08:39:55.016Z,100574.20
2022-10-23T08:42:55.205Z,100573.20
2022-10-23T08:45:39.673Z,100569.20
2022-10-23T08:48:27.642Z,100571.60
2022-10-23T08:51:29.026Z,100566.20
2022-10-23T08:54:13.848Z,100566.00
2022-10-23T08:56:52.163Z,100561.20
2022-10-23T08:59:34.258Z,100564.00
2022-10-23T09:02:22.667Z,100572.40
2022-10-23T09:04:59.241Z,100571.00
2022-10-23T09:07:52.712Z,100569.40
2022-10-23T09:11:00.221Z,100569.00
2022-10-23T09:14:04.585Z,100574.60
2022-10-23T09:17:03.089Z,100573.20
2022-10-23T09:19:37.421Z,100573.00
2022-10-23T09:22:12.709Z,100568.40
2022-10-23T09:24:53.014Z,100563.40
2022-10-23T09:27:28.106Z,100560.40
2022-10-23T09:30:02.052Z,100561.40
2022-10-23T09:32:40.306Z,100557.20
2022-10-23T09:35:29.778Z,100558.20
2022-10-23T09:38:04.004Z,100560.00
2022-10-23T09:40:44.696Z,100560.60
2022-10-23T09:43:23.398Z,100557.40
2022-10-23T09:46:06.234Z,100555.00
2022-10-23T09:48:42.424Z,100546.00
2022-10-23T09:51:24.982Z,100545.80
2022-10-23T09:54:01.916Z,100547.80
2022-10-23T09:56:42.267Z,100540.20
2022-10-23T09:59:29.186Z,100543.40
2022-10-23T10:02:05.306Z,100542.80
2022-10-23T10:04:50.672Z,100544.00
2022-10-23T10:07:29.415Z,100539.20
2022-10-23T10:10:08.951Z,100535.80
2022-10-23T10:12:58.399Z,100530.60
2022-10-23T10:15:45.855Z,100531.80
2022-10-23T10:18:32.561Z,100529.60
2022-10-23T10:21:19.859Z,100528.20
2022-10-23T10:24:01.647Z,100528.40
2022-10-23T10:26:45.722Z,100521.40
2022-10-23T10:29:37.073Z,100520.60
2022-10-23T10:32:32.275Z,100518.40
2022-10-23T10:35:25.179Z,100508.80
2022-10-23T10:38:35.621Z,100503.40
2022-10-23T10:41:37.630Z,100502.80
2022-10-23T10:44:31.298Z,100505.40
2022-10-23T10:47:21.616Z,100502.60
2022-10-23T10:50:19.773Z,100504.20
2022-10-23T10:53:25.343Z,100497.60
2022-10-23T10:56:04.686Z,100496.20
2022-10-23T10:58:47.815Z,100498.80
2022-10-23T11:01:30.282Z,100492.00
2022-10-23T11:04:15.676Z,100489.20
2022-10-23T11:06:55.439Z,100482.20
2022-10-23T11:09:33.462Z,100480.00
2022-10-23T11:12:07.968Z,100481.80
2022-10-23T11:14:46.285Z,100478.20
2022-10-23T11:17:27.849Z,100473.40
2022-10-23T11:20:10.081Z,100468.40
2022-10-23T11:22:54.942Z,100467.40
2022-10-23T11:26:02.099Z,100460.80
2022-10-23T11:29:00.570Z,100457.20
2022-10-23T11:31:47.261Z,100451.60
2022-10-23T11:34:49.109Z,100452.20
2022-10-23T11:37:26.921Z,100457.80
2022-10-23T11:40:25.962Z,100458.40
2022-10-23T11:43:01.485Z,100463.00
2022-10-23T11:45:41.665Z,100457.40
2022-10-23T11:48:41.273Z,100460.00
2022-10-23T11:51:33.426Z,100451.20
2022-10-23T11:54:27.839Z,100446.20
2022-10-23T11:57:17.774Z,100444.60
2022-10-23T12:00:00.994Z,100436.40
2022-10-23T12:02:39.226Z,100427.60
2022-10-23T12:05:42.227Z,100421.80
2022-10-23T12:08:27.954Z,100413.20
2022-10-23T12:11:02.283Z,100415.00
2022-10-23T12:13:49.087Z,100413.60
2022-10-23T12:16:23.057Z,100412.20
2022-10-23T12:18:58.084Z,100406.40
2022-10-23T12:21:41.044Z,100407.00
2022-10-23T12:24:40.025Z,100408.20
2022-10-23T12:27:31.818Z,100411.60
2022-10-23T12:30:31.907Z,100407.80
2022-10-23T12:33:24.067Z,100398.40
2022-10-23T12:36:23.119Z,100384.40
2022-10-23T12:38:58.859Z,100382.00
2022-10-23T12:41:35.996Z,100374.80
2022-10-23T12:44:14.054Z,100371.40
2022-10-23T12:46:55.589Z,100375.00
2022-10-23T12:49:34.957Z,100363.00
2022-10-23T12:52:19.871Z,100362.00
2022-10-23T12:54:53.995Z,100356.40
2022-10-23T12:57:31.451Z,100352.40
2022-10-23T13:00:17.734Z,100348.80
2022-10-23T13:03:03.985Z,100342.60
2022-10-23T13:05:39.030Z,100343.60
2022-10-23T13:08:14.872Z,100341.80
2022-10-23T13:10:57.018Z,100344.80
2022-10-23T13:13:32.058Z,100343.60
2022-10-23T13:16:17.366Z,100346.20
2022-10-23T13:18:52.185Z,100341.60
2022-10-23T13:21:29.615Z,100340.00
2022-10-23T13:24:17.581Z,100341.40
2022-10-23T13:26:51.758Z,100344.00
2022-10-23T13:29:31.667Z,100343.60
2022-10-23T13:32:22.967Z,100339.60
2022-10-23T13:35:10.139Z,100339.00
2022-10-23T13:37:51.755Z,100331.40
2022-10-23T13:40:29.148Z,100330.60
2022-10-23T13:43:03.035Z,100334.20
2022-10-23T13:45:43.340Z,100335.20
2022-10-23T13:48:18.753Z,100333.40
2022-10-23T13:50:53.018Z,100330.00
2022-10-23T13:53:26.717Z,100328.20
2022-10-23T13:56:01.443Z,100326.60
2022-10-23T13:58:35.899Z,100327.40
2022-10-23T14:01:17.972Z,100324.40
2022-10-23T14:03:53.184Z,100323.80
2022-10-23T14:06:27.778Z,100324.00
2022-10-23T14:09:01.772Z,100331.20
2022-10-23T14:11:35.713Z,100336.40
2022-10-23T14:14:10.004Z,100333.80
2022-10-23T14:16:43.788Z,100332.80
2022-10-23T14:19:17.473Z,100344.20
2022-10-23T14:21:51.552Z,100339.60
2022-10-23T14:24:25.894Z,100342.60
2022-10-23T14:27:00.271Z,100344.80
2022-10-23T14:29:36.669Z,100346.40
2022-10-23T14:32:10.958Z,100343.20
2022-10-23T14:34:51.504Z,100343.60
2022-10-23T14:37:25.759Z,100333.00
2022-10-23T14:40:00.212Z,100336.00
2022-10-23T14:42:34.489Z,100341.40
2022-10-23T14:45:10.699Z,100343.40
2022-10-23T14:47:44.833Z,100334.80
2022-10-23T14:50:20.481Z,100329.80
2022-10-23T14:52:54.577Z,100329.60
2022-10-23T14:55:28.489Z,100332.00
2022-10-23T14:58:02.763Z,100325.80
2022-10-23T15:00:36.727Z,100323.80
2022-10-23T15:03:10.599Z,100325.00
2022-10-23T15:05:46.988Z,100323.60
2022-10-23T15:08:20.996Z,100326.60
2022-10-23T15:10:54.985Z,100327.00
2022-10-23T15:13:29.326Z,100327.20
2022-10-23T15:16:16.332Z,100327.60
2022-10-23T15:18:50.791Z,100327.60
2022-10-23T15:21:24.998Z,100327.20
2022-10-23T15:24:01.657Z,100329.20
2022-10-23T15:26:36.197Z,100325.00
2022-10-23T15:29:17.169Z,100326.80
2022-10-23T15:31:56.100Z,100329.00
2022-10-23T15:34:32.572Z,100324.60
2022-10-23T15:37:07.629Z,100325.20
2022-10-23T15:39:44.447Z,100321.00
2022-10-23T15:42:19.214Z,100316.80
2022-10-23T15:44:55.353Z,100321.00
2022-10-23T15:47:29.331Z,100318.40
2022-10-23T15:50:03.310Z,100329.20
2022-10-23T15:52:38.017Z,100325.20
2022-10-23T15:55:14.232Z,100323.80
2022-10-23T15:57:50.107Z,100327.20
2022-10-23T16:00:26.076Z,100333.20
2022-10-23T16:03:03.087Z,100335.80
2022-10-23T16:05:40.087Z,100335.20
2022-10-23T16:08:16.261Z,100338.40
2022-10-23T16:10:52.158Z,100344.40
2022-10-23T16:13:29.094Z,100353.80
2022-10-23T16:16:10.112Z,100350.60
2022-10-23T16:18:47.154Z,100354.60
2022-10-23T16:21:28.174Z,100349.60
2022-10-23T16:24:07.271Z,100351.80
2022-10-23T16:26:45.166Z,100360.20
2022-10-23T16:29:22.244Z,100363.20
2022-10-23T16:32:01.082Z,100363.60
2022-10-23T16:34:35.947Z,100374.00
2022-10-23T16:37:13.100Z,100372.20
2022-10-23T16:40:15.066Z,100374.20
2022-10-23T16:43:09.120Z,100370.40
2022-10-23T16:45:50.087Z,100362.20
2022-10-23T16:48:26.122Z,100349.80
2022-10-23T16:51:02.106Z,100351.00
2022-10-23T16:53:38.120Z,100349.00
2022-10-23T16:56:17.136Z,100349.00
2022-10-23T16:58:54.233Z,100351.40
2022-10-23T17:01:34.108Z,100347.80
2022-10-23T17:04:13.355Z,100349.00
2022-10-23T17:06:50.325Z,100352.80
2022-10-23T17:09:32.198Z,100352.60
2022-10-23T17:12:10.195Z,100345.60
2022-10-23T17:14:46.338Z,100340.80
2022-10-23T17:17:22.266Z,100343.40
2022-10-23T17:19:59.314Z,100341.20
2022-10-23T17:22:36.189Z,100341.80
2022-10-23T17:25:14.394Z,100337.60
2022-10-23T17:27:51.192Z,100344.00
2022-10-23T17:30:29.178Z,100345.80
2022-10-23T17:33:06.185Z,100345.20
2022-10-23T17:35:43.101Z,100346.20
2022-10-23T17:38:20.082Z,100348.60
2022-10-23T17:40:57.375Z,100345.80
2022-10-23T17:43:32.180Z,100343.00
2022-10-23T17:46:10.266Z,100338.20
2022-10-23T17:48:47.391Z,100338.80
2022-10-23T17:51:27.366Z,100342.40
2022-10-23T18:02:33.259Z,100316.60
2022-10-23T18:05:09.648Z,100316.60
2022-10-23T18:07:44.000Z,100316.00
2022-10-23T18:10:18.470Z,100313.40
2022-10-23T18:12:53.331Z,100307.00
2022-10-23T18:15:27.416Z,100306.40
2022-10-23T18:18:01.903Z,100307.60
2022-10-23T18:20:41.148Z,100307.60
2022-10-23T18:23:15.304Z,100312.00
2022-10-23T18:25:49.557Z,100308.40
2022-10-23T18:28:24.033Z,100304.60
2022-10-23T18:30:58.904Z,100294.00
2022-10-23T18:33:33.336Z,100289.00
2022-10-23T18:36:15.426Z,100288.80
2022-10-23T18:38:49.978Z,100289.80
2022-10-23T18:41:24.819Z,100281.20
2022-10-23T18:43:59.428Z,100283.60
2022-10-23T18:46:33.360Z,100279.80
2022-10-23T18:49:09.219Z,100273.20
2022-10-23T18:51:43.905Z,100263.60
2022-10-23T18:54:21.343Z,100278.60
2022-10-23T18:56:56.627Z,100282.20
2022-10-23T18:59:31.611Z,100292.80
2022-10-23T19:02:06.039Z,100289.80
2022-10-23T19:04:40.392Z,100288.20
2022-10-23T19:07:14.905Z,100286.00
2022-10-23T19:09:49.842Z,100274.80
2022-10-23T19:12:24.540Z,100276.60
2022-10-23T19:15:00.377Z,100275.20
2022-10-23T19:17:37.063Z,100276.20
2022-10-23T19:20:18.254Z,100271.00
2022-10-23T19:22:58.307Z,100270.20
2022-10-23T19:25:36.377Z,100263.00
2022-10-23T19:28:10.741Z,100250.60
2022-10-23T19:30:45.463Z,100245.40
2022-10-23T19:33:20.508Z,100241.40
2022-10-23T19:35:55.477Z,100245.40
2022-10-23T19:38:30.198Z,100255.00
2022-10-23T19:41:05.051Z,100249.60
2022-10-23T19:43:39.769Z,100244.00
2022-10-23T19:46:13.816Z,100242.20
2022-10-23T19:48:47.719Z,100243.40
2022-10-23T19:51:22.212Z,100239.80
2022-10-23T19:54:00.337Z,100228.40
2022-10-23T19:56:35.511Z,100223.60
2022-10-23T19:59:13.119Z,100222.00
2022-10-23T20:01:48.904Z,100230.00
2022-10-23T20:04:23.971Z,100232.60
2022-10-23T20:06:57.819Z,100241.00
2022-10-23T20:09:34.179Z,100243.60
2022-10-23T20:12:09.439Z,100238.80
2022-10-23T20:14:43.819Z,100240.60
2022-10-23T20:17:19.005Z,100239.00
2022-10-23T20:19:53.865Z,100236.40
2022-10-23T20:22:28.532Z,100233.40
2022-10-23T20:25:03.009Z,100224.00
2022-10-23T20:30:19.081Z,100221.80
2022-10-23T20:32:53.609Z,100230.40
2022-10-23T20:35:28.129Z,100224.00
2022-10-23T20:38:02.003Z,100216.80
2022-10-23T20:40:36.744Z,100204.20
2022-10-23T20:43:10.903Z,100198.40
2022-10-23T20:45:45.024Z,100183.40
2022-10-23T20:48:20.612Z,100175.60
2022-10-23T20:50:55.605Z,100168.20
2022-10-23T20:53:30.319Z,100166.40
2022-10-23T20:56:08.059Z,100171.00
2022-10-23T20:58:41.826Z,100174.80
2022-10-23T21:01:19.267Z,100178.00
2022-10-23T21:03:57.881Z,100184.80
2022-10-23T21:06:46.105Z,100198.60
2022-10-23T21:09:30.056Z,100188.60
2022-10-23T21:12:03.755Z,100178.40
2022-10-23T21:14:37.709Z,100184.00
2022-10-23T21:17:16.851Z,100180.00
2022-10-23T21:19:50.728Z,100169.60
2022-10-23T21:22:24.472Z,100168.00
2022-10-23T21:25:00.242Z,100175.20
2022-10-23T21:27:35.290Z,100172.20
2022-10-23T21:30:12.912Z,100171.60
2022-10-23T21:32:46.796Z,100163.40
2022-10-23T21:35:21.383Z,100161.20
2022-10-23T21:37:55.446Z,100158.80
2022-10-23T21:40:29.347Z,100151.60
2022-10-23T21:43:03.368Z,100149.40
2022-10-23T21:45:39.417Z,100149.80
2022-10-23T21:48:13.425Z,100145.20
2022-10-23T21:50:47.175Z,100142.80
2022-10-23T21:53:20.927Z,100146.60
2022-10-23T21:55:55.325Z,100151.20
2022-10-23T21:58:29.036Z,100142.20
2022-10-23T22:01:03.218Z,100136.00
2022-10-23T22:03:37.143Z,100141.80
2022-10-23T22:06:15.177Z,100139.20
2022-10-23T22:08:49.511Z,100126.60
2022-10-23T22:11:23.912Z,100124.00
2022-10-23T22:13:58.040Z,100114.60
2022-10-23T22:16:32.016Z,100114.60
2022-10-23T22:19:07.558Z,100111.40
2022-10-23T22:21:41.362Z,100120.20
2022-10-23T22:24:16.141Z,100122.00
2022-10-23T22:26:52.975Z,100122.40
2022-10-23T22:29:29.901Z,100120.00
2022-10-23T22:32:03.648Z,100111.00
2022-10-23T22:34:53.654Z,100104.80
2022-10-23T22:37:27.473Z,100102.00
2022-10-23T22:40:01.879Z,100098.00
2022-10-23T22:42:35.965Z,100097.40
2022-10-23T22:45:12.106Z,100094.40
2022-10-23T22:47:45.723Z,100093.60
2022-10-23T22:50:19.739Z,100100.60
2022-10-23T22:52:53.305Z,100095.60
2022-10-23T22:55:26.863Z,100090.60
2022-10-23T22:58:00.488Z,100087.60
2022-10-23T23:00:34.262Z,100076.60
2022-10-23T23:03:08.385Z,100079.40
2022-10-23T23:05:47.020Z,100087.40
2022-10-23T23:08:20.647Z,100092.00
2022-10-23T23:10:58.802Z,100102.20
2022-10-23T23:13:33.111Z,100101.60
2022-10-23T23:16:08.816Z,100098.80
2022-10-23T23:18:42.323Z,100099.60
2022-10-23T23:21:16.402Z,100097.20
2022-10-23T23:23:50.910Z,100101.20
2022-10-23T23:26:25.644Z,100101.40
2022-10-23T23:28:59.282Z,100105.40
2022-10-23T23:31:32.933Z,100107.00
2022-10-23T23:34:06.759Z,100105.40
2022-10-23T23:36:40.433Z,100107.20
2022-10-23T23:39:14.375Z,100114.20
2022-10-23T23:41:47.930Z,100121.20
2022-10-23T23:44:21.455Z,100123.20
2022-10-23T23:46:55.143Z,100121.20
2022-10-23T23:49:28.969Z,100116.60
2022-10-23T23:52:02.696Z,100114.60
2022-10-23T23:54:36.232Z,100107.80
2022-10-23T23:57:10.932Z,100107.60
2022-10-23T23:59:45.428Z,100113.60
